Time;durP1;ratioP1;P1;durP2;ratioP2;P2;SDS_P1;SDS_P2;PMS_P1;PMS_P2;Temp;Humidity;BMP_temperature;BMP_pressure;BME280_temperature;BME280_humidity;BME280_pressure;Samples;Min_cycle;Max_cycle;Signal;HPM_P1;HPM_P2
2022/03/15 00:01:32;;;;;;;14.10;7.10;;;;;;;5.86;57.94;97359.22;5115130;28;20047;-78
2022/03/15 00:03:59;;;;;;;17.50;7.35;;;;;;;5.88;57.78;97357.88;5114789;28;20623;-77
2022/03/15 00:06:27;;;;;;;13.13;7.15;;;;;;;5.90;57.72;97353.03;5114292;28;20059;-78
2022/03/15 00:08:53;;;;;;;13.15;6.95;;;;;;;5.93;57.89;97349.81;5114810;28;20047;-77
2022/03/15 00:11:22;;;;;;;17.75;9.10;;;;;;;5.94;57.87;97343.31;5113927;28;20543;-77
2022/03/15 00:13:48;;;;;;;16.00;7.70;;;;;;;5.94;57.89;97346.03;5114252;28;20397;-77
2022/03/15 00:16:15;;;;;;;18.45;8.63;;;;;;;5.91;57.70;97340.31;5114673;28;20073;-77
2022/03/15 00:18:42;;;;;;;16.58;8.35;;;;;;;5.89;57.68;97337.06;5114651;28;20062;-77
2022/03/15 00:21:10;;;;;;;20.23;8.88;;;;;;;5.87;57.62;97334.63;5114601;28;20070;-77
2022/03/15 00:23:38;;;;;;;17.55;7.90;;;;;;;5.88;57.20;97330.03;5117025;28;20055;-77
2022/03/15 00:26:05;;;;;;;19.88;8.63;;;;;;;5.87;57.78;97326.50;5113718;28;20113;-78
2022/03/15 00:28:32;;;;;;;15.40;7.65;;;;;;;5.91;58.41;97324.09;5113552;28;20050;-76
2022/03/15 00:30:59;;;;;;;16.58;8.77;;;;;;;5.92;59.24;97323.88;5112716;28;20403;-74
2022/03/15 00:33:25;;;;;;;17.83;8.63;;;;;;;5.96;59.89;97316.84;5113787;28;20046;-77
2022/03/15 00:35:53;;;;;;;23.00;10.50;;;;;;;6.01;60.76;97316.88;5112643;28;20051;-78
2022/03/15 00:38:20;;;;;;;20.60;10.52;;;;;;;6.07;61.42;97308.78;5114654;28;20054;-79
2022/03/15 00:40:48;;;;;;;17.08;9.45;;;;;;;6.10;61.55;97309.03;5117163;28;20051;-79
2022/03/15 00:43:15;;;;;;;26.98;12.32;;;;;;;6.14;61.92;97306.63;5119545;28;20093;-76
2022/03/15 00:45:41;;;;;;;20.95;10.32;;;;;;;6.18;62.24;97310.44;5121094;28;20490;-76
2022/03/15 00:48:08;;;;;;;20.10;11.02;;;;;;;6.21;62.30;97307.19;5123878;28;20048;-76
2022/03/15 00:50:39;;;;;;;17.45;10.45;;;;;;;6.24;62.20;97295.84;5125353;28;20040;-77
2022/03/15 00:53:06;;;;;;;21.25;11.32;;;;;;;6.27;62.15;97303.44;5098348;28;20060;-76
2022/03/15 00:55:33;;;;;;;21.17;11.57;;;;;;;6.29;62.53;97298.56;5095914;28;20037;-76
2022/03/15 00:58:01;;;;;;;24.17;11.35;;;;;;;6.36;62.38;97301.00;5095206;28;20044;-76
2022/03/15 01:00:31;;;;;;;30.70;12.27;;;;;;;6.37;62.43;97299.91;5093938;28;20047;-75
2022/03/15 01:02:57;;;;;;;24.10;11.13;;;;;;;6.40;62.58;97300.19;5093176;28;20591;-76
2022/03/15 01:05:24;;;;;;;32.47;14.02;;;;;;;6.44;62.50;97301.28;5096331;28;20048;-78
2022/03/15 01:07:50;;;;;;;19.38;11.60;;;;;;;6.46;62.44;97295.59;5098414;28;20055;-76
2022/03/15 01:10:17;;;;;;;23.75;12.52;;;;;;;6.49;62.63;97298.59;5097372;28;20051;-77
2022/03/15 01:12:43;;;;;;;21.23;12.35;;;;;;;6.50;62.55;97294.81;5091896;28;20044;-77
2022/03/15 01:15:11;;;;;;;24.15;12.85;;;;;;;6.52;62.60;97295.38;5092930;28;20051;-77
2022/03/15 01:17:38;;;;;;;19.10;11.57;;;;;;;6.56;62.38;97301.03;5114682;28;20051;-77
2022/03/15 01:20:07;;;;;;;24.30;12.20;;;;;;;6.59;62.40;97297.00;5112820;28;20040;-76
2022/03/15 01:22:34;;;;;;;23.70;12.43;;;;;;;6.61;62.43;97297.53;5114107;28;20054;-76
2022/03/15 01:25:00;;;;;;;27.15;11.95;;;;;;;6.64;62.54;97297.00;5112501;28;20043;-78
2022/03/15 01:27:27;;;;;;;64.63;14.52;;;;;;;6.66;62.16;97289.41;5112528;28;20043;-77
2022/03/15 01:29:54;;;;;;;24.33;13.02;;;;;;;6.69;62.35;97295.09;5105384;28;20047;-77
2022/03/15 01:32:21;;;;;;;28.65;14.82;;;;;;;6.70;62.08;97283.19;5091432;28;20060;-76
2022/03/15 01:34:48;;;;;;;25.40;12.90;;;;;;;6.71;61.97;97276.69;5091980;28;20040;-77
2022/03/15 01:37:14;;;;;;;22.80;13.02;;;;;;;6.72;62.01;97274.78;5090792;28;20089;-76
2022/03/15 01:39:41;;;;;;;22.20;12.55;;;;;;;6.72;62.13;97274.78;5093148;28;20060;-77
2022/03/15 01:42:08;;;;;;;22.40;12.68;;;;;;;6.72;61.96;97272.09;5100280;28;20111;-77
2022/03/15 01:44:35;;;;;;;20.75;11.15;;;;;;;6.72;61.99;97275.59;5113036;28;20138;-77
2022/03/15 01:47:02;;;;;;;23.40;12.20;;;;;;;6.74;62.24;97272.66;5111614;28;20419;-76
2022/03/15 01:49:29;;;;;;;31.15;12.88;;;;;;;6.75;62.39;97274.28;5111523;28;20046;-77
2022/03/15 01:51:57;;;;;;;29.48;12.20;;;;;;;6.75;62.57;97268.84;5122747;27;20047;-77
2022/03/15 01:54:24;;;;;;;31.55;13.25;;;;;;;6.77;62.45;97266.69;5131533;27;20043;-76
2022/03/15 01:56:51;;;;;;;35.30;12.43;;;;;;;6.69;62.33;97253.69;5132691;27;20043;-77
2022/03/15 01:59:18;;;;;;;57.03;12.75;;;;;;;6.62;62.19;97253.94;5134666;27;20043;-75
2022/03/15 02:01:46;;;;;;;34.90;12.07;;;;;;;6.57;62.73;97255.84;5116301;28;20509;-76
2022/03/15 02:04:15;;;;;;;46.80;13.05;;;;;;;6.54;62.67;97258.03;5112476;28;20100;-75
2022/03/15 02:06:44;;;;;;;39.70;11.98;;;;;;;6.54;62.88;97249.91;5113967;28;20100;-76
2022/03/15 02:09:11;;;;;;;23.45;12.40;;;;;;;6.58;63.01;97242.06;5113799;28;20147;-75
2022/03/15 02:11:38;;;;;;;21.95;12.95;;;;;;;6.60;63.13;97244.50;5114294;28;20100;-77
2022/03/15 02:14:05;;;;;;;20.92;13.02;;;;;;;6.62;63.17;97234.19;5112420;28;20079;-77
2022/03/15 02:16:32;;;;;;;20.48;11.98;;;;;;;6.64;62.84;97237.47;5113590;28;20071;-75
2022/03/15 02:19:00;;;;;;;24.17;12.82;;;;;;;6.67;62.66;97228.78;5112270;28;20044;-76
2022/03/15 02:21:29;;;;;;;30.17;13.20;;;;;;;6.68;62.95;97238.53;5111659;28;20040;-77
2022/03/15 02:23:55;;;;;;;28.25;12.68;;;;;;;6.71;62.81;97243.41;5112627;28;20046;-77
2022/03/15 02:26:22;;;;;;;22.27;13.23;;;;;;;6.73;62.94;97249.34;5109760;28;20052;-76
2022/03/15 02:28:49;;;;;;;23.67;13.30;;;;;;;6.75;62.50;97250.72;5111920;28;20058;-76
2022/03/15 02:31:16;;;;;;;26.15;13.65;;;;;;;6.76;62.54;97248.81;5110251;28;20040;-75
2022/03/15 02:33:42;;;;;;;24.15;12.48;;;;;;;6.79;62.39;97237.47;5112033;28;20042;-76
2022/03/15 02:36:09;;;;;;;24.50;12.63;;;;;;;6.79;62.46;97242.88;5110163;28;20048;-76
2022/03/15 02:38:38;;;;;;;29.60;12.73;;;;;;;6.78;62.42;97238.50;5111552;28;20402;-75
2022/03/15 02:41:06;;;;;;;24.63;12.68;;;;;;;6.73;62.13;97233.09;5110905;28;20050;-76
2022/03/15 02:43:33;;;;;;;24.17;12.52;;;;;;;6.69;61.58;97229.34;5110457;28;20467;-76
2022/03/15 02:45:59;;;;;;;22.83;11.27;;;;;;;6.63;61.15;97231.25;5111515;28;20046;-76
2022/03/15 02:48:26;;;;;;;30.80;12.10;;;;;;;6.54;60.60;97230.97;5109964;28;20047;-76
2022/03/15 02:50:53;;;;;;;40.35;15.68;;;;;;;6.45;60.51;97227.16;5113145;28;20065;-75
2022/03/15 02:53:19;;;;;;;22.48;11.05;;;;;;;6.39;60.59;97230.94;5117584;28;20048;-77
2022/03/15 02:55:47;;;;;;;24.73;12.63;;;;;;;6.36;60.85;97230.66;5119617;28;20043;-77
2022/03/15 02:58:14;;;;;;;28.25;11.05;;;;;;;6.29;61.56;97230.94;5115727;28;20043;-76
2022/03/15 03:00:41;;;;;;;24.52;11.98;;;;;;;6.27;62.07;97236.63;5100424;28;20044;-76
2022/03/15 03:03:07;;;;;;;28.20;12.15;;;;;;;6.23;63.13;97230.13;5089892;28;20059;-75
2022/03/15 03:05:34;;;;;;;28.45;13.13;;;;;;;6.24;63.58;97228.22;5091762;28;20123;-76
2022/03/15 03:08:04;;;;;;;26.35;13.38;;;;;;;6.23;63.52;97224.72;5091558;28;20048;-76
2022/03/15 03:10:32;;;;;;;23.40;12.35;;;;;;;6.24;63.81;97220.13;5090672;28;20040;-76
2022/03/15 03:13:00;;;;;;;22.98;12.65;;;;;;;6.26;63.71;97207.13;5111438;28;20043;-76
2022/03/15 03:15:26;;;;;;;22.13;13.15;;;;;;;6.24;64.36;97210.09;5110170;28;20512;-76
2022/03/15 03:17:53;;;;;;;21.98;13.27;;;;;;;6.19;64.23;97199.28;5111767;28;20047;-75
2022/03/15 03:20:21;;;;;;;21.52;12.75;;;;;;;6.17;64.21;97192.53;5110045;28;20055;-76
2022/03/15 03:22:51;;;;;;;26.65;13.82;;;;;;;6.13;64.35;97196.84;5111692;28;20070;-76
2022/03/15 03:25:18;;;;;;;21.58;13.20;;;;;;;6.08;64.98;97199.53;5110247;28;20048;-74
2022/03/15 03:27:46;;;;;;;24.55;14.40;;;;;;;6.03;65.36;97196.81;5110999;28;20051;-75
2022/03/15 03:30:16;;;;;;;26.10;13.95;;;;;;;6.01;65.73;97194.41;5111813;28;20043;-76
2022/03/15 03:32:43;;;;;;;26.70;13.75;;;;;;;6.01;65.59;97189.81;5111090;28;20101;-75
2022/03/15 03:35:10;;;;;;;23.25;12.75;;;;;;;6.00;65.98;97185.47;5111143;28;20043;-76
2022/03/15 03:37:36;;;;;;;34.72;12.25;;;;;;;5.99;65.86;97186.53;5110550;28;20039;-76
2022/03/15 03:40:07;;;;;;;23.50;13.35;;;;;;;6.00;65.76;97177.38;5107632;28;20047;-77
2022/03/15 03:42:34;;;;;;;23.23;13.15;;;;;;;6.00;66.18;97180.06;5110300;28;20055;-76
2022/03/15 03:45:00;;;;;;;30.58;12.80;;;;;;;6.03;65.68;97181.41;5110266;28;20048;-76
2022/03/15 03:47:28;;;;;;;23.42;12.93;;;;;;;6.07;65.76;97181.69;5104324;28;20035;-75
2022/03/15 03:49:54;;;;;;;25.08;13.50;;;;;;;6.12;65.39;97185.22;5110844;28;20051;-76
2022/03/15 03:52:21;;;;;;;29.48;12.90;;;;;;;6.15;65.21;97189.25;5094924;28;20040;-75
2022/03/15 03:54:48;;;;;;;36.63;12.95;;;;;;;6.20;64.83;97192.78;5089511;28;20068;-75
2022/03/15 03:57:14;;;;;;;21.88;12.55;;;;;;;6.21;64.78;97201.72;5089183;28;20044;-76
2022/03/15 03:59:43;;;;;;;21.52;12.35;;;;;;;6.14;65.00;97204.69;5089491;28;20063;-76
2022/03/15 04:02:09;;;;;;;21.13;12.88;;;;;;;6.22;64.90;97200.66;5089833;28;20044;-76
2022/03/15 04:04:37;;;;;;;19.77;12.00;;;;;;;6.26;64.64;97191.72;5088860;28;20040;-75
2022/03/15 04:07:10;;;;;;;20.58;12.70;;;;;;;6.31;64.63;97201.72;5089310;28;20343;-76
2022/03/15 04:09:36;;;;;;;26.75;12.30;;;;;;;6.21;64.33;97204.41;5089393;28;20063;-74
2022/03/15 04:12:06;;;;;;;20.85;12.48;;;;;;;6.19;64.45;97201.97;5089386;28;20063;-75
2022/03/15 04:14:34;;;;;;;20.90;12.93;;;;;;;6.21;64.42;97196.28;5091173;28;20040;-76
2022/03/15 04:17:00;;;;;;;22.40;13.45;;;;;;;6.19;64.55;97212.00;5088093;28;20048;-76
2022/03/15 04:19:27;;;;;;;23.05;13.38;;;;;;;6.19;64.46;97195.75;5113284;28;20445;-75
2022/03/15 04:21:55;;;;;;;26.08;13.18;;;;;;;6.17;64.67;97196.03;5112902;28;20051;-75
2022/03/15 04:24:21;;;;;;;23.15;13.30;;;;;;;6.12;65.93;97192.53;5113543;28;20047;-76
2022/03/15 04:26:48;;;;;;;21.10;12.68;;;;;;;6.11;65.89;97188.16;5113001;28;20040;-76
2022/03/15 04:29:14;;;;;;;26.10;13.25;;;;;;;6.09;65.82;97190.34;5111641;28;20138;-75
2022/03/15 04:31:41;;;;;;;24.02;13.80;;;;;;;6.09;65.82;97193.03;5092608;28;20081;-76
2022/03/15 04:34:14;;;;;;;28.98;13.45;;;;;;;6.08;65.62;97199.53;5081061;28;20510;-78
2022/03/15 04:36:41;;;;;;;27.65;13.95;;;;;;;6.07;65.21;97195.22;5094116;28;20491;-75
2022/03/15 04:39:11;;;;;;;25.83;13.63;;;;;;;6.08;65.06;97194.13;5093306;28;20044;-75
2022/03/15 04:41:40;;;;;;;24.58;13.55;;;;;;;6.10;64.90;97200.06;5094446;28;20511;-75
2022/03/15 04:44:07;;;;;;;24.30;13.60;;;;;;;6.10;65.20;97202.78;5093016;28;20074;-76
2022/03/15 04:46:33;;;;;;;25.38;13.75;;;;;;;6.07;65.30;97203.34;5093690;28;20051;-75
2022/03/15 04:49:00;;;;;;;22.27;12.88;;;;;;;6.00;65.36;97209.81;5092768;28;20051;-75
2022/03/15 04:51:27;;;;;;;23.73;13.05;;;;;;;6.03;65.34;97207.66;5092909;28;20051;-76
2022/03/15 04:53:54;;;;;;;25.17;12.93;;;;;;;6.05;65.18;97208.19;5093935;28;20105;-76
2022/03/15 04:56:23;;;;;;;27.08;14.35;;;;;;;6.07;65.68;97197.94;5095457;28;20517;-77
2022/03/15 04:58:50;;;;;;;22.17;13.35;;;;;;;6.07;66.31;97193.31;5098842;28;20074;-77
2022/03/15 05:01:16;;;;;;;21.40;13.07;;;;;;;6.09;66.37;97195.75;5096589;28;20052;-76
2022/03/15 05:03:43;;;;;;;27.48;13.20;;;;;;;6.07;65.95;97208.75;5096801;28;20074;-76
2022/03/15 05:06:09;;;;;;;27.13;14.13;;;;;;;6.06;65.77;97199.81;5093774;28;20051;-76
2022/03/15 05:08:36;;;;;;;28.90;13.90;;;;;;;6.08;65.74;97194.13;5094650;28;20040;-75
2022/03/15 05:11:07;;;;;;;23.35;13.07;;;;;;;6.10;66.06;97198.19;5093356;28;20051;-77
2022/03/15 05:13:39;;;;;;;26.98;14.02;;;;;;;6.13;66.12;97188.72;5096569;28;20051;-76
2022/03/15 05:16:07;;;;;;;23.65;14.60;;;;;;;6.17;66.66;97192.53;5070235;28;20127;-76
2022/03/15 05:18:34;;;;;;;25.63;14.85;;;;;;;6.17;66.67;97192.53;5095235;28;20050;-76
2022/03/15 05:21:01;;;;;;;26.67;15.27;;;;;;;6.18;66.59;97188.75;5094929;28;20054;-77
2022/03/15 05:23:27;;;;;;;27.73;15.32;;;;;;;6.15;66.18;97189.25;5102648;28;20040;-77
2022/03/15 05:25:54;;;;;;;24.38;14.18;;;;;;;6.12;66.22;97192.53;5115195;28;20047;-76
2022/03/15 05:28:20;;;;;;;28.85;15.27;;;;;;;6.11;66.34;97193.56;5113278;28;20048;-76
2022/03/15 05:30:48;;;;;;;24.45;14.73;;;;;;;6.14;66.16;97193.06;5100785;28;20044;-77
2022/03/15 05:33:15;;;;;;;30.02;15.57;;;;;;;6.17;65.90;97187.94;5093307;28;20048;-76
2022/03/15 05:35:41;;;;;;;24.88;15.07;;;;;;;6.18;65.97;97183.34;5093826;28;20052;-77
2022/03/15 05:38:08;;;;;;;28.77;15.00;;;;;;;6.18;66.14;97178.72;5095120;28;20048;-76
2022/03/15 05:40:35;;;;;;;27.52;15.52;;;;;;;6.17;66.10;97170.91;5097091;28;20447;-75
2022/03/15 05:43:02;;;;;;;24.95;15.25;;;;;;;6.16;66.16;97180.06;5097198;28;20044;-77
2022/03/15 05:45:28;;;;;;;30.75;15.60;;;;;;;6.17;65.75;97176.31;5095574;28;20671;-76
2022/03/15 05:47:56;;;;;;;27.33;15.68;;;;;;;6.15;65.98;97178.44;5110761;28;20067;-76
2022/03/15 05:50:23;;;;;;;27.40;15.52;;;;;;;6.15;65.60;97178.44;5115624;28;20048;-76
2022/03/15 05:52:50;;;;;;;25.48;15.20;;;;;;;6.16;65.60;97180.06;5135212;27;20486;-77
2022/03/15 05:55:17;;;;;;;31.95;15.60;;;;;;;6.15;65.60;97170.34;5135150;27;20107;-77
2022/03/15 05:57:43;;;;;;;25.98;15.30;;;;;;;6.16;65.62;97174.66;5136581;27;20527;-76
2022/03/15 06:00:11;;;;;;;27.27;14.48;;;;;;;6.15;66.12;97165.75;5135614;27;20490;-77
2022/03/15 06:02:52;;;;;;;27.15;15.65;;;;;;;6.14;66.04;97164.13;5137607;27;20043;-76
2022/03/15 06:05:20;;;;;;;27.75;15.80;;;;;;;6.13;65.68;97188.72;5135573;27;20047;-77
2022/03/15 06:07:48;;;;;;;26.77;15.75;;;;;;;6.13;65.31;97188.72;5139836;27;20043;-76
2022/03/15 06:10:16;;;;;;;28.58;16.52;;;;;;;6.17;65.49;97187.94;5138435;27;20043;-75
2022/03/15 06:12:43;;;;;;;29.25;16.45;;;;;;;6.10;65.69;97187.38;5136948;27;20094;-76
2022/03/15 06:15:10;;;;;;;26.65;16.38;;;;;;;6.14;65.62;97195.75;5138959;27;20053;-75
2022/03/15 06:17:44;;;;;;;27.70;15.80;;;;;;;6.16;65.73;97193.59;5124917;27;20041;-77
2022/03/15 06:20:14;;;;;;;27.42;15.95;;;;;;;6.20;65.57;97194.69;5139460;27;20375;-76
2022/03/15 06:22:43;;;;;;;29.48;16.17;;;;;;;6.20;65.49;97189.28;5136524;27;20108;-76
2022/03/15 06:25:10;;;;;;;26.65;16.38;;;;;;;6.25;65.74;97200.09;5139538;27;20040;-77
2022/03/15 06:27:37;;;;;;;32.20;18.00;;;;;;;6.28;65.78;97202.28;5140348;27;20486;-75
2022/03/15 06:30:04;;;;;;;33.05;17.65;;;;;;;6.33;65.76;97198.75;5130537;27;20043;-75
2022/03/15 06:32:31;;;;;;;30.58;16.70;;;;;;;6.36;65.55;97198.19;5119716;28;20067;-76
2022/03/15 06:34:58;;;;;;;33.42;17.25;;;;;;;6.30;65.48;97202.81;5116905;28;20133;-77
2022/03/15 06:37:25;;;;;;;34.85;16.92;;;;;;;6.20;65.85;97192.78;5115753;28;20047;-76
2022/03/15 06:39:54;;;;;;;34.05;18.08;;;;;;;6.30;66.09;97189.28;5116023;28;20043;-76
2022/03/15 06:42:23;;;;;;;31.38;17.25;;;;;;;6.40;65.71;97181.16;5116136;28;20043;-75
2022/03/15 06:44:49;;;;;;;29.08;17.73;;;;;;;6.49;65.82;97184.16;5116875;28;20043;-76
2022/03/15 06:47:16;;;;;;;40.70;19.98;;;;;;;6.55;65.60;97188.47;5114677;27;20643;-76
2022/03/15 06:49:44;;;;;;;32.00;17.33;;;;;;;6.53;65.46;97188.75;5116589;28;20059;-76
2022/03/15 06:52:10;;;;;;;41.28;20.13;;;;;;;6.61;65.27;97181.16;5115712;28;20465;-77
2022/03/15 06:54:37;;;;;;;30.33;18.10;;;;;;;6.65;65.53;97188.47;5115389;28;20409;-77
2022/03/15 06:57:05;;;;;;;35.30;19.38;;;;;;;6.73;65.24;97192.50;5115865;28;20050;-78
2022/03/15 06:59:32;;;;;;;33.58;17.88;;;;;;;6.77;65.07;97204.41;5117827;28;20044;-75
2022/03/15 07:01:59;;;;;;;33.63;17.70;;;;;;;6.85;64.72;97212.00;5113589;28;20046;-76
2022/03/15 07:04:26;;;;;;;35.33;18.58;;;;;;;6.91;64.81;97208.19;5114417;28;20059;-76
2022/03/15 07:06:52;;;;;;;30.13;17.02;;;;;;;6.99;64.84;97204.09;5113704;28;20054;-77
2022/03/15 07:09:19;;;;;;;34.35;18.55;;;;;;;7.07;64.25;97220.63;5114156;28;20051;-76
2022/03/15 07:11:46;;;;;;;32.92;17.27;;;;;;;7.17;63.92;97216.28;5113817;28;20055;-75
2022/03/15 07:14:14;;;;;;;34.40;18.40;;;;;;;7.30;63.30;97210.25;5114116;28;20113;-79
2022/03/15 07:16:41;;;;;;;37.65;16.50;;;;;;;7.43;62.67;97198.03;5114940;28;20223;-76
2022/03/15 07:19:07;;;;;;;36.40;18.27;;;;;;;7.58;62.01;97201.50;5110938;28;20043;-75
2022/03/15 07:21:34;;;;;;;43.88;17.65;;;;;;;7.68;61.56;97205.25;5113415;28;20059;-75
2022/03/15 07:24:00;;;;;;;49.35;18.15;;;;;;;7.85;60.87;97205.69;5111835;28;20051;-76
2022/03/15 07:26:27;;;;;;;35.55;16.83;;;;;;;8.02;60.35;97198.00;5113053;28;20414;-75
2022/03/15 07:28:55;;;;;;;28.27;16.77;;;;;;;8.20;59.74;97190.31;5111969;28;20047;-75
2022/03/15 07:31:23;;;;;;;29.45;15.52;;;;;;;8.40;59.12;97190.16;5092904;28;20795;-75
2022/03/15 07:33:50;;;;;;;25.60;14.93;;;;;;;8.54;58.50;97176.75;5091892;28;20040;-76
2022/03/15 07:36:18;;;;;;;25.70;15.02;;;;;;;8.59;57.73;97188.38;5091810;28;20053;-75
2022/03/15 07:38:44;;;;;;;24.90;14.88;;;;;;;8.61;57.27;97183.50;5090873;28;20070;-75
2022/03/15 07:41:11;;;;;;;26.30;15.20;;;;;;;8.63;57.50;97178.59;5091756;28;20646;-76
2022/03/15 07:43:37;;;;;;;26.90;15.18;;;;;;;8.56;57.94;97188.13;5091914;28;20398;-76
2022/03/15 07:46:05;;;;;;;30.88;14.85;;;;;;;8.60;58.13;97198.16;5094600;28;20134;-77
2022/03/15 07:48:35;;;;;;;36.85;15.38;;;;;;;8.62;56.94;97185.13;5112618;28;20047;-78
2022/03/15 07:51:03;;;;;;;23.05;13.68;;;;;;;8.74;57.11;97192.06;5118964;27;20055;-79
2022/03/15 07:53:30;;;;;;;25.00;14.30;;;;;;;8.80;56.91;97202.59;5139112;27;20039;-77
2022/03/15 07:55:59;;;;;;;24.80;13.00;;;;;;;8.79;55.75;97202.88;5136963;27;20054;-77
2022/03/15 07:58:27;;;;;;;28.00;14.05;;;;;;;8.68;55.89;97202.16;5136936;27;20047;-76
2022/03/15 08:00:56;;;;;;;36.03;14.05;;;;;;;8.39;57.15;97204.84;5135567;27;20092;-75
2022/03/15 08:03:23;;;;;;;36.17;14.80;;;;;;;8.15;58.23;97201.19;5134012;27;20047;-76
2022/03/15 08:05:52;;;;;;;25.35;11.85;;;;;;;8.25;57.24;97209.28;5134731;27;20046;-76
2022/03/15 08:08:19;;;;;;;31.80;13.10;;;;;;;8.32;57.53;97209.75;5134141;27;20057;-78
2022/03/15 08:10:46;;;;;;;45.78;13.13;;;;;;;8.06;57.78;97209.09;5135733;27;20047;-75
2022/03/15 08:13:12;;;;;;;23.45;12.88;;;;;;;7.85;58.75;97211.94;5133106;27;20043;-76
2022/03/15 08:15:40;;;;;;;23.95;12.73;;;;;;;7.93;59.33;97199.66;5132899;27;20043;-75
2022/03/15 08:18:07;;;;;;;29.40;14.43;;;;;;;7.59;60.58;97218.56;5110443;28;20047;-75
2022/03/15 08:20:39;;;;;;;24.02;13.68;;;;;;;7.35;61.88;97202.13;5111872;28;20101;-75
2022/03/15 08:23:09;;;;;;;25.48;13.23;;;;;;;7.53;61.48;97217.78;5114653;28;20160;-75
2022/03/15 08:25:36;;;;;;;30.33;12.02;;;;;;;7.39;61.66;97208.59;5114521;28;20050;-76
2022/03/15 08:28:03;;;;;;;25.15;11.38;;;;;;;7.20;62.39;97210.28;5113481;28;20043;-77
2022/03/15 08:30:32;;;;;;;24.20;12.25;;;;;;;7.44;61.87;97205.88;5113989;28;20476;-75
2022/03/15 08:32:58;;;;;;;24.60;12.23;;;;;;;7.40;61.89;97204.81;5115563;28;20062;-76
2022/03/15 08:35:25;;;;;;;24.42;12.38;;;;;;;7.16;62.07;97198.41;5111209;28;20050;-76
2022/03/15 08:37:52;;;;;;;23.45;11.93;;;;;;;6.96;62.43;97193.84;5112222;28;20048;-77
2022/03/15 08:40:24;;;;;;;21.98;11.25;;;;;;;7.03;62.45;97184.34;5111914;28;20074;-78
2022/03/15 08:42:53;;;;;;;22.55;11.95;;;;;;;7.39;61.99;97175.28;5115052;28;20047;-78
2022/03/15 08:45:19;;;;;;;17.50;10.90;;;;;;;7.49;60.38;97173.34;5114572;28;20043;-79
2022/03/15 08:47:46;;;;;;;18.33;10.25;;;;;;;7.46;60.63;97175.78;5114473;28;20059;-79
2022/03/15 08:50:15;;;;;;;19.15;10.70;;;;;;;7.54;60.69;97178.75;5117272;28;20406;-78
2022/03/15 08:52:41;;;;;;;24.13;10.75;;;;;;;7.69;59.83;97186.00;5101165;28;20703;-78
2022/03/15 08:55:09;;;;;;;19.67;10.80;;;;;;;7.83;59.42;97184.31;5078169;28;20052;-79
2022/03/15 08:57:39;;;;;;;19.38;11.48;;;;;;;7.93;59.24;97191.53;5075076;28;20805;-79
2022/03/15 09:00:11;;;;;;;24.17;11.35;;;;;;;8.02;59.22;97200.72;5073283;28;20048;-79
2022/03/15 09:02:38;;;;;;;20.20;10.80;;;;;;;8.05;58.91;97205.59;5076443;28;20048;-78
2022/03/15 09:05:05;;;;;;;18.42;11.02;;;;;;;8.28;59.20;97197.84;5076128;28;20384;-78
2022/03/15 09:07:32;;;;;;;18.50;10.65;;;;;;;8.38;58.30;97189.66;5076328;28;20053;-78
2022/03/15 09:10:00;;;;;;;22.77;10.55;;;;;;;8.60;57.33;97183.75;5063621;28;20045;-78
2022/03/15 09:12:26;;;;;;;21.58;10.80;;;;;;;8.65;56.27;97185.63;5072793;28;20040;-78
2022/03/15 09:14:55;;;;;;;18.95;10.32;;;;;;;8.74;55.83;97181.22;5073262;28;20052;-78
2022/03/15 09:17:24;;;;;;;20.77;11.05;;;;;;;8.73;56.00;97179.59;5089265;28;20051;-79
2022/03/15 09:19:51;;;;;;;18.60;10.38;;;;;;;8.69;55.93;97171.19;5092687;28;20111;-77
2022/03/15 09:22:18;;;;;;;18.60;10.88;;;;;;;8.75;56.10;97159.19;5094277;28;20051;-78
2022/03/15 09:24:45;;;;;;;20.00;10.43;;;;;;;9.07;55.89;97155.06;5096119;28;20051;-76
2022/03/15 09:27:12;;;;;;;21.45;10.60;;;;;;;9.18;54.94;97147.59;5096721;28;20474;-78
2022/03/15 09:29:40;;;;;;;15.88;9.35;;;;;;;9.25;54.56;97157.03;5097167;28;20090;-79
2022/03/15 09:32:11;;;;;;;21.05;11.18;;;;;;;9.45;54.93;97149.72;5095176;28;20048;-79
2022/03/15 09:34:38;;;;;;;18.38;9.75;;;;;;;9.39;54.30;97146.25;5095301;28;20048;-78
2022/03/15 09:37:06;;;;;;;20.75;11.35;;;;;;;9.59;54.61;97135.13;5094077;28;20127;-78
2022/03/15 09:39:33;;;;;;;28.45;10.23;;;;;;;9.60;54.84;97136.75;5096255;28;20048;-79
2022/03/15 09:42:01;;;;;;;19.98;9.95;;;;;;;9.73;55.06;97126.25;5084461;28;20052;-77
2022/03/15 09:44:30;;;;;;;28.98;10.40;;;;;;;9.62;53.89;97129.13;5095071;28;20047;-79
2022/03/15 09:47:02;;;;;;;19.67;10.43;;;;;;;9.73;54.40;97128.97;5093756;28;20051;-80
2022/03/15 09:49:32;;;;;;;19.53;9.63;;;;;;;9.91;54.84;97136.31;5094444;28;20051;-79
2022/03/15 09:52:00;;;;;;;27.17;11.23;;;;;;;10.04;53.53;97135.59;5104991;28;20047;-79
2022/03/15 09:54:29;;;;;;;23.70;10.15;;;;;;;10.28;52.93;97134.69;5112129;28;20051;-79
2022/03/15 09:56:57;;;;;;;20.95;9.25;;;;;;;10.53;52.39;97128.03;5114564;28;20062;-78
2022/03/15 09:59:25;;;;;;;22.05;10.07;;;;;;;10.75;51.36;97130.91;5109238;28;20441;-79
2022/03/15 10:01:54;;;;;;;20.17;9.85;;;;;;;10.86;51.44;97117.94;5094075;28;20068;-78
2022/03/15 10:04:23;;;;;;;18.05;10.25;;;;;;;11.13;50.38;97112.50;5091603;28;20586;-78
2022/03/15 10:06:51;;;;;;;15.15;9.77;;;;;;;11.36;49.88;97102.47;5094034;28;20048;-79
2022/03/15 10:09:18;;;;;;;21.42;9.95;;;;;;;11.58;48.53;97096.28;5091990;28;20055;-79
2022/03/15 10:11:45;;;;;;;17.17;9.25;;;;;;;11.62;48.98;97091.81;5093497;28;20040;-78
2022/03/15 10:14:12;;;;;;;16.30;9.55;;;;;;;11.71;49.14;97095.44;5080513;28;20505;-79
2022/03/15 10:16:40;;;;;;;15.80;9.13;;;;;;;11.80;48.13;97098.28;5093164;28;20059;-80
2022/03/15 10:19:08;;;;;;;16.08;9.07;;;;;;;11.95;46.76;97094.38;5091863;28;20447;-78
2022/03/15 10:21:41;;;;;;;21.45;8.93;;;;;;;11.88;47.28;97102.22;5091978;28;20754;-77
2022/03/15 10:24:10;;;;;;;31.77;11.00;;;;;;;11.94;46.76;97098.25;5093887;28;20055;-80
2022/03/15 10:26:38;;;;;;;19.42;9.23;;;;;;;11.53;46.81;97104.56;5094336;28;20035;-78
2022/03/15 10:29:05;;;;;;;20.20;9.80;;;;;;;11.57;47.59;97108.31;5093764;28;20060;-76
2022/03/15 10:31:32;;;;;;;18.90;9.80;;;;;;;11.48;48.12;97118.31;5093406;28;20052;-79
2022/03/15 10:34:01;;;;;;;19.75;10.45;;;;;;;11.35;48.32;97125.41;5093965;28;20048;-78
2022/03/15 10:36:36;;;;;;;17.95;10.00;;;;;;;11.04;49.10;97138.81;5092879;28;20044;-79
2022/03/15 10:39:03;;;;;;;17.65;10.45;;;;;;;10.54;50.49;97127.72;5093492;28;20143;-78
2022/03/15 10:41:42;;;;;;;16.58;10.15;;;;;;;10.94;50.87;97128.13;5095926;28;20040;-78
2022/03/15 10:44:16;;;;;;;16.95;10.70;;;;;;;11.30;51.12;97132.88;5096033;28;20045;-78
2022/03/15 10:46:42;;;;;;;16.30;10.55;;;;;;;11.42;49.50;97120.34;5095347;28;20052;-79
2022/03/15 10:49:10;;;;;;;17.83;10.18;;;;;;;11.53;49.92;97110.03;5094236;28;20056;-79
2022/03/15 10:51:40;;;;;;;19.45;11.05;;;;;;;11.63;49.53;97109.81;5104583;28;20086;-78
2022/03/15 10:54:08;;;;;;;18.27;10.55;;;;;;;11.84;49.23;97106.66;5114475;28;20043;-78
2022/03/15 10:56:40;;;;;;;17.63;10.43;;;;;;;11.83;47.94;97102.31;5114875;28;20762;-77
2022/03/15 10:59:09;;;;;;;14.88;9.98;;;;;;;11.87;48.41;97103.31;5114526;28;20094;-78
2022/03/15 11:01:39;;;;;;;22.77;11.30;;;;;;;11.61;48.82;97101.13;5077332;28;20039;-78
2022/03/15 11:04:09;;;;;;;18.55;11.20;;;;;;;11.45;49.19;97094.41;5093630;28;20513;-78
2022/03/15 11:06:38;;;;;;;16.40;9.60;;;;;;;11.62;49.99;97078.19;5093053;28;20044;-78
2022/03/15 11:09:24;;;;;;;18.35;9.75;;;;;;;11.86;48.67;97075.22;5094784;28;20044;-80
2022/03/15 11:12:00;;;;;;;14.60;9.23;;;;;;;12.11;49.23;97076.56;5094345;28;20048;-77
2022/03/15 11:14:38;;;;;;;15.55;9.52;;;;;;;12.19;47.86;97086.72;5094226;28;20644;-78
2022/03/15 11:17:08;;;;;;;14.50;9.15;;;;;;;12.27;46.80;97074.25;5093760;28;20079;-79
2022/03/15 11:19:39;;;;;;;15.25;9.50;;;;;;;12.23;47.15;97074.06;5093267;28;20097;-78
2022/03/15 11:22:08;;;;;;;16.50;9.32;;;;;;;12.12;47.67;97069.97;5093791;28;20044;-81
2022/03/15 11:24:39;;;;;;;13.80;8.75;;;;;;;12.16;47.25;97057.31;5093265;28;20076;-78
2022/03/15 11:27:09;;;;;;;15.32;9.38;;;;;;;12.27;48.08;97036.84;5094218;28;20070;-79